sensor_id;sensor_type;location;lat;lon;timestamp;temperature;humidity
33943;DHT22;66763;47.856;17.462;2023-04-25T00:01:33;18.90;46.20
33943;DHT22;66763;47.856;17.462;2023-04-25T00:04:01;18.90;46.20
33943;DHT22;66763;47.856;17.462;2023-04-25T00:06:28;18.90;46.20
33943;DHT22;66763;47.856;17.462;2023-04-25T00:08:55;18.90;46.20
33943;DHT22;66763;47.856;17.462;2023-04-25T00:11:22;18.90;46.30
33943;DHT22;66763;47.856;17.462;2023-04-25T00:13:47;18.90;46.30
33943;DHT22;66763;47.856;17.462;2023-04-25T00:16:13;18.90;46.30
33943;DHT22;66763;47.856;17.462;2023-04-25T00:18:43;18.80;46.30
33943;DHT22;66763;47.856;17.462;2023-04-25T00:21:11;18.80;46.30
33943;DHT22;66763;47.856;17.462;2023-04-25T00:23:37;18.90;46.40
33943;DHT22;66763;47.856;17.462;2023-04-25T00:26:04;18.90;46.30
33943;DHT22;66763;47.856;17.462;2023-04-25T00:28:29;18.80;46.30
33943;DHT22;66763;47.856;17.462;2023-04-25T00:30:55;18.80;46.30
33943;DHT22;66763;47.856;17.462;2023-04-25T00:33:20;18.80;46.20
33943;DHT22;66763;47.856;17.462;2023-04-25T00:35:46;18.80;46.20
33943;DHT22;66763;47.856;17.462;2023-04-25T00:38:11;18.90;46.30
33943;DHT22;66763;47.856;17.462;2023-04-25T00:40:37;18.80;46.20
33943;DHT22;66763;47.856;17.462;2023-04-25T00:43:02;18.90;46.30
33943;DHT22;66763;47.856;17.462;2023-04-25T00:45:28;18.90;46.30
33943;DHT22;66763;47.856;17.462;2023-04-25T00:47:57;18.80;46.20
33943;DHT22;66763;47.856;17.462;2023-04-25T00:50:24;18.90;46.30
33943;DHT22;66763;47.856;17.462;2023-04-25T00:52:49;18.80;46.20
33943;DHT22;66763;47.856;17.462;2023-04-25T00:55:15;18.90;46.20
33943;DHT22;66763;47.856;17.462;2023-04-25T00:57:41;18.90;46.20
33943;DHT22;66763;47.856;17.462;2023-04-25T01:00:07;18.90;46.20
33943;DHT22;66763;47.856;17.462;2023-04-25T01:02:34;18.80;46.20
33943;DHT22;66763;47.856;17.462;2023-04-25T01:05:00;18.90;46.20
33943;DHT22;66763;47.856;17.462;2023-04-25T01:07:26;18.80;46.20
33943;DHT22;66763;47.856;17.462;2023-04-25T01:09:52;18.80;46.20
33943;DHT22;66763;47.856;17.462;2023-04-25T01:12:18;18.80;46.20
33943;DHT22;66763;47.856;17.462;2023-04-25T01:14:43;18.80;46.20
33943;DHT22;66763;47.856;17.462;2023-04-25T01:17:10;18.80;46.20
33943;DHT22;66763;47.856;17.462;2023-04-25T01:19:35;18.80;46.20
33943;DHT22;66763;47.856;17.462;2023-04-25T01:22:01;18.80;46.20
33943;DHT22;66763;47.856;17.462;2023-04-25T01:24:26;18.90;46.20
33943;DHT22;66763;47.856;17.462;2023-04-25T01:26:52;18.80;46.20
33943;DHT22;66763;47.856;17.462;2023-04-25T01:29:19;18.80;46.10
33943;DHT22;66763;47.856;17.462;2023-04-25T01:31:45;18.80;46.20
33943;DHT22;66763;47.856;17.462;2023-04-25T01:34:11;18.80;46.20
33943;DHT22;66763;47.856;17.462;2023-04-25T01:36:36;18.80;46.30
33943;DHT22;66763;47.856;17.462;2023-04-25T01:39:02;18.80;46.30
33943;DHT22;66763;47.856;17.462;2023-04-25T01:41:28;18.70;46.30
33943;DHT22;66763;47.856;17.462;2023-04-25T01:43:53;18.80;46.30
33943;DHT22;66763;47.856;17.462;2023-04-25T01:46:19;18.80;46.30
33943;DHT22;66763;47.856;17.462;2023-04-25T01:48:45;18.80;46.30
33943;DHT22;66763;47.856;17.462;2023-04-25T01:51:11;18.70;46.30
33943;DHT22;66763;47.856;17.462;2023-04-25T01:53:37;18.80;46.30
33943;DHT22;66763;47.856;17.462;2023-04-25T01:56:03;18.80;46.40
33943;DHT22;66763;47.856;17.462;2023-04-25T01:58:28;18.80;46.30
33943;DHT22;66763;47.856;17.462;2023-04-25T02:00:54;18.80;46.40
33943;DHT22;66763;47.856;17.462;2023-04-25T02:03:19;18.80;46.30
33943;DHT22;66763;47.856;17.462;2023-04-25T02:05:45;18.70;46.30
33943;DHT22;66763;47.856;17.462;2023-04-25T02:08:10;18.70;46.30
33943;DHT22;66763;47.856;17.462;2023-04-25T02:10:36;18.80;46.30
33943;DHT22;66763;47.856;17.462;2023-04-25T02:13:02;18.80;46.30
33943;DHT22;66763;47.856;17.462;2023-04-25T02:15:28;18.80;46.30
33943;DHT22;66763;47.856;17.462;2023-04-25T02:17:53;18.80;46.30
33943;DHT22;66763;47.856;17.462;2023-04-25T02:20:22;18.70;46.30
33943;DHT22;66763;47.856;17.462;2023-04-25T02:22:48;18.80;46.30
33943;DHT22;66763;47.856;17.462;2023-04-25T02:25:14;18.80;46.30
33943;DHT22;66763;47.856;17.462;2023-04-25T02:27:39;18.80;46.30
33943;DHT22;66763;47.856;17.462;2023-04-25T02:30:05;18.70;46.30
33943;DHT22;66763;47.856;17.462;2023-04-25T02:32:32;18.80;46.30
33943;DHT22;66763;47.856;17.462;2023-04-25T02:34:57;18.80;46.30
33943;DHT22;66763;47.856;17.462;2023-04-25T02:37:32;18.70;46.20
33943;DHT22;66763;47.856;17.462;2023-04-25T02:39:58;18.80;46.30
33943;DHT22;66763;47.856;17.462;2023-04-25T02:42:23;18.80;46.30
33943;DHT22;66763;47.856;17.462;2023-04-25T02:44:49;18.70;46.20
33943;DHT22;66763;47.856;17.462;2023-04-25T02:47:14;18.70;46.20
33943;DHT22;66763;47.856;17.462;2023-04-25T02:49:40;18.80;46.20
33943;DHT22;66763;47.856;17.462;2023-04-25T02:52:05;18.70;46.20
33943;DHT22;66763;47.856;17.462;2023-04-25T02:54:31;18.80;46.10
33943;DHT22;66763;47.856;17.462;2023-04-25T02:56:56;18.80;46.70
33943;DHT22;66763;47.856;17.462;2023-04-25T02:59:22;18.80;46.10
33943;DHT22;66763;47.856;17.462;2023-04-25T03:01:47;18.80;46.10
33943;DHT22;66763;47.856;17.462;2023-04-25T03:04:13;18.80;46.10
33943;DHT22;66763;47.856;17.462;2023-04-25T03:06:38;18.70;46.10
33943;DHT22;66763;47.856;17.462;2023-04-25T03:09:04;18.80;46.10
33943;DHT22;66763;47.856;17.462;2023-04-25T03:11:29;18.80;46.10
33943;DHT22;66763;47.856;17.462;2023-04-25T03:13:55;18.70;46.00
33943;DHT22;66763;47.856;17.462;2023-04-25T03:16:21;18.80;46.10
33943;DHT22;66763;47.856;17.462;2023-04-25T03:18:46;18.80;46.10
33943;DHT22;66763;47.856;17.462;2023-04-25T03:21:12;18.80;46.00
33943;DHT22;66763;47.856;17.462;2023-04-25T03:23:37;18.80;46.10
33943;DHT22;66763;47.856;17.462;2023-04-25T03:26:03;18.70;46.00
33943;DHT22;66763;47.856;17.462;2023-04-25T03:28:29;18.70;46.00
33943;DHT22;66763;47.856;17.462;2023-04-25T03:30:54;18.70;46.00
33943;DHT22;66763;47.856;17.462;2023-04-25T03:33:20;18.70;46.00
33943;DHT22;66763;47.856;17.462;2023-04-25T03:35:45;18.70;46.00
33943;DHT22;66763;47.856;17.462;2023-04-25T03:38:11;18.70;46.00
33943;DHT22;66763;47.856;17.462;2023-04-25T03:40:36;18.70;46.00
33943;DHT22;66763;47.856;17.462;2023-04-25T03:43:02;18.70;46.00
33943;DHT22;66763;47.856;17.462;2023-04-25T03:45:27;18.70;46.00
33943;DHT22;66763;47.856;17.462;2023-04-25T03:47:52;18.70;46.00
33943;DHT22;66763;47.856;17.462;2023-04-25T03:50:18;18.70;46.00
33943;DHT22;66763;47.856;17.462;2023-04-25T03:52:43;18.70;46.10
33943;DHT22;66763;47.856;17.462;2023-04-25T03:55:09;18.70;46.00
33943;DHT22;66763;47.856;17.462;2023-04-25T03:57:35;18.70;46.10
33943;DHT22;66763;47.856;17.462;2023-04-25T04:00:00;18.70;46.10
33943;DHT22;66763;47.856;17.462;2023-04-25T04:02:26;18.70;46.10
33943;DHT22;66763;47.856;17.462;2023-04-25T04:04:51;18.70;46.10
33943;DHT22;66763;47.856;17.462;2023-04-25T04:07:17;18.70;46.10
33943;DHT22;66763;47.856;17.462;2023-04-25T04:09:42;18.60;46.00
33943;DHT22;66763;47.856;17.462;2023-04-25T04:12:08;18.60;46.00
33943;DHT22;66763;47.856;17.462;2023-04-25T04:14:33;18.70;46.20
33943;DHT22;66763;47.856;17.462;2023-04-25T04:16:59;18.60;46.00
33943;DHT22;66763;47.856;17.462;2023-04-25T04:19:24;18.70;46.10
33943;DHT22;66763;47.856;17.462;2023-04-25T04:21:50;18.70;46.10
33943;DHT22;66763;47.856;17.462;2023-04-25T04:24:15;18.60;46.00
33943;DHT22;66763;47.856;17.462;2023-04-25T04:26:42;18.70;46.10
33943;DHT22;66763;47.856;17.462;2023-04-25T04:29:10;18.60;46.00
33943;DHT22;66763;47.856;17.462;2023-04-25T04:31:35;18.60;46.10
33943;DHT22;66763;47.856;17.462;2023-04-25T04:34:01;18.60;46.00
33943;DHT22;66763;47.856;17.462;2023-04-25T04:36:27;18.60;46.00
33943;DHT22;66763;47.856;17.462;2023-04-25T04:38:53;18.60;46.00
33943;DHT22;66763;47.856;17.462;2023-04-25T04:41:19;18.60;46.00
33943;DHT22;66763;47.856;17.462;2023-04-25T04:43:44;18.60;46.00
33943;DHT22;66763;47.856;17.462;2023-04-25T04:46:10;18.60;46.00
33943;DHT22;66763;47.856;17.462;2023-04-25T04:48:37;18.60;46.00
33943;DHT22;66763;47.856;17.462;2023-04-25T04:51:05;18.60;46.00
33943;DHT22;66763;47.856;17.462;2023-04-25T04:53:31;18.60;46.00
33943;DHT22;66763;47.856;17.462;2023-04-25T04:55:56;18.60;46.10
33943;DHT22;66763;47.856;17.462;2023-04-25T04:58:22;18.60;46.10
33943;DHT22;66763;47.856;17.462;2023-04-25T05:00:48;18.60;46.10
33943;DHT22;66763;47.856;17.462;2023-04-25T05:03:13;18.60;46.10
33943;DHT22;66763;47.856;17.462;2023-04-25T05:05:39;18.60;46.10
33943;DHT22;66763;47.856;17.462;2023-04-25T05:08:05;18.60;46.10
33943;DHT22;66763;47.856;17.462;2023-04-25T05:10:31;18.60;46.10
33943;DHT22;66763;47.856;17.462;2023-04-25T05:12:57;18.60;46.10
33943;DHT22;66763;47.856;17.462;2023-04-25T05:15:22;18.60;46.10
33943;DHT22;66763;47.856;17.462;2023-04-25T05:17:48;18.60;46.10
33943;DHT22;66763;47.856;17.462;2023-04-25T05:20:13;18.60;46.10
33943;DHT22;66763;47.856;17.462;2023-04-25T05:22:39;18.60;46.10
33943;DHT22;66763;47.856;17.462;2023-04-25T05:25:07;18.60;46.10
33943;DHT22;66763;47.856;17.462;2023-04-25T05:27:32;18.60;46.10
33943;DHT22;66763;47.856;17.462;2023-04-25T05:29:58;18.60;46.10
33943;DHT22;66763;47.856;17.462;2023-04-25T05:32:24;18.60;46.10
33943;DHT22;66763;47.856;17.462;2023-04-25T05:34:50;18.60;46.10
33943;DHT22;66763;47.856;17.462;2023-04-25T05:37:16;18.60;46.10
33943;DHT22;66763;47.856;17.462;2023-04-25T05:39:41;18.60;46.10
33943;DHT22;66763;47.856;17.462;2023-04-25T05:42:07;18.60;46.10
33943;DHT22;66763;47.856;17.462;2023-04-25T05:44:32;18.60;46.10
33943;DHT22;66763;47.856;17.462;2023-04-25T05:46:57;18.70;46.10
33943;DHT22;66763;47.856;17.462;2023-04-25T05:49:23;18.60;46.10
33943;DHT22;66763;47.856;17.462;2023-04-25T05:51:48;18.70;46.10
33943;DHT22;66763;47.856;17.462;2023-04-25T05:54:14;18.60;46.00
33943;DHT22;66763;47.856;17.462;2023-04-25T05:56:39;18.60;46.00
33943;DHT22;66763;47.856;17.462;2023-04-25T05:59:05;18.60;46.10
33943;DHT22;66763;47.856;17.462;2023-04-25T06:01:31;18.60;46.00
33943;DHT22;66763;47.856;17.462;2023-04-25T06:03:56;18.60;46.00
33943;DHT22;66763;47.856;17.462;2023-04-25T06:06:22;18.60;46.00
33943;DHT22;66763;47.856;17.462;2023-04-25T06:08:47;18.60;46.00
33943;DHT22;66763;47.856;17.462;2023-04-25T06:11:13;18.60;46.10
33943;DHT22;66763;47.856;17.462;2023-04-25T06:13:38;18.60;46.00
33943;DHT22;66763;47.856;17.462;2023-04-25T06:16:04;18.60;46.00
33943;DHT22;66763;47.856;17.462;2023-04-25T06:18:30;18.60;46.00
33943;DHT22;66763;47.856;17.462;2023-04-25T06:20:55;18.60;46.00
33943;DHT22;66763;47.856;17.462;2023-04-25T06:23:21;18.60;46.00
33943;DHT22;66763;47.856;17.462;2023-04-25T06:25:46;18.60;46.00
33943;DHT22;66763;47.856;17.462;2023-04-25T06:28:12;18.60;46.00
33943;DHT22;66763;47.856;17.462;2023-04-25T06:30:37;18.60;46.00
33943;DHT22;66763;47.856;17.462;2023-04-25T06:33:02;18.60;46.00
33943;DHT22;66763;47.856;17.462;2023-04-25T06:35:28;18.60;46.00
33943;DHT22;66763;47.856;17.462;2023-04-25T06:37:54;18.60;46.00
33943;DHT22;66763;47.856;17.462;2023-04-25T06:40:19;18.60;46.00
33943;DHT22;66763;47.856;17.462;2023-04-25T06:42:45;18.50;46.00
33943;DHT22;66763;47.856;17.462;2023-04-25T06:45:10;18.60;45.90
33943;DHT22;66763;47.856;17.462;2023-04-25T06:47:36;18.60;46.00
33943;DHT22;66763;47.856;17.462;2023-04-25T06:50:01;18.60;46.00
33943;DHT22;66763;47.856;17.462;2023-04-25T06:52:27;18.60;46.00
33943;DHT22;66763;47.856;17.462;2023-04-25T06:54:52;18.60;45.90
33943;DHT22;66763;47.856;17.462;2023-04-25T06:57:17;18.60;45.90
33943;DHT22;66763;47.856;17.462;2023-04-25T06:59:43;18.60;45.90
33943;DHT22;66763;47.856;17.462;2023-04-25T07:02:09;18.60;46.00
33943;DHT22;66763;47.856;17.462;2023-04-25T07:04:34;18.60;45.90
33943;DHT22;66763;47.856;17.462;2023-04-25T07:07:00;18.50;45.90
33943;DHT22;66763;47.856;17.462;2023-04-25T07:09:28;18.50;45.90
33943;DHT22;66763;47.856;17.462;2023-04-25T07:11:53;18.50;45.90
33943;DHT22;66763;47.856;17.462;2023-04-25T07:14:19;18.50;45.90
33943;DHT22;66763;47.856;17.462;2023-04-25T07:16:44;18.60;45.90
33943;DHT22;66763;47.856;17.462;2023-04-25T07:19:10;18.60;46.20
33943;DHT22;66763;47.856;17.462;2023-04-25T07:21:35;18.50;45.80
33943;DHT22;66763;47.856;17.462;2023-04-25T07:24:01;18.60;45.90
33943;DHT22;66763;47.856;17.462;2023-04-25T07:26:27;18.60;45.90
33943;DHT22;66763;47.856;17.462;2023-04-25T07:28:52;18.60;45.90
33943;DHT22;66763;47.856;17.462;2023-04-25T07:31:19;18.50;45.80
33943;DHT22;66763;47.856;17.462;2023-04-25T07:33:45;18.50;45.80
33943;DHT22;66763;47.856;17.462;2023-04-25T07:36:11;18.50;45.80
33943;DHT22;66763;47.856;17.462;2023-04-25T07:38:37;18.60;45.90
33943;DHT22;66763;47.856;17.462;2023-04-25T07:41:03;18.50;45.90
33943;DHT22;66763;47.856;17.462;2023-04-25T07:43:28;18.50;45.90
33943;DHT22;66763;47.856;17.462;2023-04-25T07:45:54;18.60;45.90
33943;DHT22;66763;47.856;17.462;2023-04-25T07:48:19;18.60;45.90
33943;DHT22;66763;47.856;17.462;2023-04-25T07:50:45;18.60;45.90
33943;DHT22;66763;47.856;17.462;2023-04-25T07:53:11;18.60;45.90
33943;DHT22;66763;47.856;17.462;2023-04-25T07:55:36;18.60;46.50
33943;DHT22;66763;47.856;17.462;2023-04-25T07:58:08;18.60;46.00
33943;DHT22;66763;47.856;17.462;2023-04-25T08:00:34;18.60;46.00
33943;DHT22;66763;47.856;17.462;2023-04-25T08:02:59;18.60;45.90
33943;DHT22;66763;47.856;17.462;2023-04-25T08:05:25;18.60;45.80
33943;DHT22;66763;47.856;17.462;2023-04-25T08:07:50;18.60;45.80
33943;DHT22;66763;47.856;17.462;2023-04-25T08:10:16;18.60;45.80
33943;DHT22;66763;47.856;17.462;2023-04-25T08:12:41;18.60;45.70
33943;DHT22;66763;47.856;17.462;2023-04-25T08:15:07;18.60;45.70
33943;DHT22;66763;47.856;17.462;2023-04-25T08:17:33;18.60;45.70
33943;DHT22;66763;47.856;17.462;2023-04-25T08:19:58;18.60;45.70
33943;DHT22;66763;47.856;17.462;2023-04-25T08:22:24;18.60;45.60
33943;DHT22;66763;47.856;17.462;2023-04-25T08:24:49;18.60;45.60
33943;DHT22;66763;47.856;17.462;2023-04-25T08:27:15;18.60;45.60
33943;DHT22;66763;47.856;17.462;2023-04-25T08:29:41;18.70;45.70
33943;DHT22;66763;47.856;17.462;2023-04-25T08:32:06;18.70;45.60
33943;DHT22;66763;47.856;17.462;2023-04-25T08:34:32;18.60;45.60
33943;DHT22;66763;47.856;17.462;2023-04-25T08:36:57;18.70;45.60
33943;DHT22;66763;47.856;17.462;2023-04-25T08:39:23;18.60;46.20
33943;DHT22;66763;47.856;17.462;2023-04-25T08:41:48;18.70;45.60
33943;DHT22;66763;47.856;17.462;2023-04-25T08:44:14;18.70;45.60
33943;DHT22;66763;47.856;17.462;2023-04-25T08:46:40;18.60;45.50
33943;DHT22;66763;47.856;17.462;2023-04-25T08:49:06;18.70;45.50
33943;DHT22;66763;47.856;17.462;2023-04-25T08:51:32;18.70;45.60
33943;DHT22;66763;47.856;17.462;2023-04-25T08:54:02;18.70;45.50
33943;DHT22;66763;47.856;17.462;2023-04-25T08:56:33;18.60;45.50
33943;DHT22;66763;47.856;17.462;2023-04-25T08:59:00;18.70;45.60
33943;DHT22;66763;47.856;17.462;2023-04-25T09:01:26;18.60;45.50
33943;DHT22;66763;47.856;17.462;2023-04-25T09:03:52;18.70;45.60
33943;DHT22;66763;47.856;17.462;2023-04-25T09:06:17;18.70;45.50
33943;DHT22;66763;47.856;17.462;2023-04-25T09:08:43;18.70;45.50
33943;DHT22;66763;47.856;17.462;2023-04-25T09:11:08;18.70;45.60
33943;DHT22;66763;47.856;17.462;2023-04-25T09:13:34;18.70;45.50
33943;DHT22;66763;47.856;17.462;2023-04-25T09:16:00;18.60;45.50
33943;DHT22;66763;47.856;17.462;2023-04-25T09:18:29;18.70;45.50
33943;DHT22;66763;47.856;17.462;2023-04-25T09:20:55;18.60;45.50
33943;DHT22;66763;47.856;17.462;2023-04-25T09:23:22;18.70;45.60
33943;DHT22;66763;47.856;17.462;2023-04-25T09:25:48;18.70;45.60
33943;DHT22;66763;47.856;17.462;2023-04-25T09:28:13;18.70;45.50
33943;DHT22;66763;47.856;17.462;2023-04-25T09:30:39;18.60;45.60
33943;DHT22;66763;47.856;17.462;2023-04-25T09:33:10;18.70;45.60
33943;DHT22;66763;47.856;17.462;2023-04-25T09:38:06;18.70;45.60
33943;DHT22;66763;47.856;17.462;2023-04-25T09:40:32;18.60;45.60
33943;DHT22;66763;47.856;17.462;2023-04-25T09:42:57;18.60;45.50
33943;DHT22;66763;47.856;17.462;2023-04-25T09:45:24;18.60;45.50
33943;DHT22;66763;47.856;17.462;2023-04-25T09:47:49;18.70;45.60
33943;DHT22;66763;47.856;17.462;2023-04-25T09:50:16;18.60;45.50
33943;DHT22;66763;47.856;17.462;2023-04-25T09:52:42;18.70;45.60
33943;DHT22;66763;47.856;17.462;2023-04-25T09:55:08;18.70;45.60
33943;DHT22;66763;47.856;17.462;2023-04-25T09:57:33;18.60;45.50
33943;DHT22;66763;47.856;17.462;2023-04-25T10:00:00;18.60;45.50
33943;DHT22;66763;47.856;17.462;2023-04-25T10:02:26;18.60;45.60
33943;DHT22;66763;47.856;17.462;2023-04-25T10:04:53;18.70;45.60
33943;DHT22;66763;47.856;17.462;2023-04-25T10:07:23;18.70;45.50
33943;DHT22;66763;47.856;17.462;2023-04-25T10:09:54;18.70;45.50
33943;DHT22;66763;47.856;17.462;2023-04-25T10:12:20;18.60;45.50
33943;DHT22;66763;47.856;17.462;2023-04-25T10:14:46;18.70;45.60
33943;DHT22;66763;47.856;17.462;2023-04-25T10:17:12;18.60;45.50
33943;DHT22;66763;47.856;17.462;2023-04-25T10:19:39;18.70;45.60
33943;DHT22;66763;47.856;17.462;2023-04-25T10:22:07;18.60;45.60
33943;DHT22;66763;47.856;17.462;2023-04-25T10:24:33;18.70;45.60
33943;DHT22;66763;47.856;17.462;2023-04-25T10:27:00;18.70;45.60
33943;DHT22;66763;47.856;17.462;2023-04-25T10:29:26;18.70;45.60
33943;DHT22;66763;47.856;17.462;2023-04-25T10:31:52;18.60;45.40
33943;DHT22;66763;47.856;17.462;2023-04-25T10:34:18;18.60;45.50
33943;DHT22;66763;47.856;17.462;2023-04-25T10:36:48;18.60;45.60
33943;DHT22;66763;47.856;17.462;2023-04-25T10:39:14;18.60;45.60
33943;DHT22;66763;47.856;17.462;2023-04-25T10:41:47;18.70;45.70
33943;DHT22;66763;47.856;17.462;2023-04-25T10:44:13;18.60;45.60
33943;DHT22;66763;47.856;17.462;2023-04-25T10:46:39;18.70;45.80
33943;DHT22;66763;47.856;17.462;2023-04-25T10:49:04;18.60;45.80
33943;DHT22;66763;47.856;17.462;2023-04-25T10:51:30;18.60;45.90
33943;DHT22;66763;47.856;17.462;2023-04-25T10:54:00;18.60;45.90
33943;DHT22;66763;47.856;17.462;2023-04-25T10:56:27;18.60;46.00
33943;DHT22;66763;47.856;17.462;2023-04-25T10:59:35;18.60;46.10
33943;DHT22;66763;47.856;17.462;2023-04-25T11:01:53;18.60;46.10
33943;DHT22;66763;47.856;17.462;2023-04-25T11:04:20;18.50;46.10
33943;DHT22;66763;47.856;17.462;2023-04-25T11:06:50;18.50;46.10
33943;DHT22;66763;47.856;17.462;2023-04-25T11:09:17;18.50;46.10
33943;DHT22;66763;47.856;17.462;2023-04-25T11:11:43;18.50;46.20
33943;DHT22;66763;47.856;17.462;2023-04-25T11:14:19;18.50;46.10
33943;DHT22;66763;47.856;17.462;2023-04-25T11:16:45;18.50;46.20
33943;DHT22;66763;47.856;17.462;2023-04-25T11:19:10;18.50;46.20
33943;DHT22;66763;47.856;17.462;2023-04-25T11:21:35;18.50;46.20
33943;DHT22;66763;47.856;17.462;2023-04-25T11:24:02;18.50;46.20
33943;DHT22;66763;47.856;17.462;2023-04-25T11:26:27;18.50;46.20
33943;DHT22;66763;47.856;17.462;2023-04-25T11:28:56;18.50;46.10
33943;DHT22;66763;47.856;17.462;2023-04-25T11:31:22;18.60;46.00
33943;DHT22;66763;47.856;17.462;2023-04-25T11:33:49;18.60;46.00
33943;DHT22;66763;47.856;17.462;2023-04-25T11:36:15;18.60;45.90
33943;DHT22;66763;47.856;17.462;2023-04-25T11:38:40;18.60;46.00
33943;DHT22;66763;47.856;17.462;2023-04-25T11:41:06;18.60;46.00
33943;DHT22;66763;47.856;17.462;2023-04-25T11:43:32;18.60;46.00
33943;DHT22;66763;47.856;17.462;2023-04-25T11:45:57;18.60;46.10
33943;DHT22;66763;47.856;17.462;2023-04-25T11:48:23;18.60;46.10
33943;DHT22;66763;47.856;17.462;2023-04-25T11:50:48;18.60;46.00
33943;DHT22;66763;47.856;17.462;2023-04-25T11:53:14;18.60;46.00
33943;DHT22;66763;47.856;17.462;2023-04-25T11:55:39;18.60;46.00
33943;DHT22;66763;47.856;17.462;2023-04-25T11:58:05;18.60;46.00
33943;DHT22;66763;47.856;17.462;2023-04-25T12:00:31;18.60;46.00
33943;DHT22;66763;47.856;17.462;2023-04-25T12:02:56;18.60;46.00
33943;DHT22;66763;47.856;17.462;2023-04-25T12:05:27;18.60;46.00
33943;DHT22;66763;47.856;17.462;2023-04-25T12:07:53;18.60;46.20
33943;DHT22;66763;47.856;17.462;2023-04-25T12:10:18;18.60;46.00
33943;DHT22;66763;47.856;17.462;2023-04-25T12:12:44;18.60;46.00
33943;DHT22;66763;47.856;17.462;2023-04-25T12:17:36;18.60;46.00
33943;DHT22;66763;47.856;17.462;2023-04-25T12:20:09;18.60;46.00
33943;DHT22;66763;47.856;17.462;2023-04-25T12:22:35;18.60;45.90
33943;DHT22;66763;47.856;17.462;2023-04-25T12:25:02;18.60;46.60
33943;DHT22;66763;47.856;17.462;2023-04-25T12:27:30;18.60;45.90
33943;DHT22;66763;47.856;17.462;2023-04-25T12:29:56;18.60;46.00
33943;DHT22;66763;47.856;17.462;2023-04-25T12:32:22;18.60;46.00
33943;DHT22;66763;47.856;17.462;2023-04-25T12:34:47;18.60;46.10
33943;DHT22;66763;47.856;17.462;2023-04-25T12:37:13;18.60;46.20
33943;DHT22;66763;47.856;17.462;2023-04-25T12:39:39;18.50;46.10
33943;DHT22;66763;47.856;17.462;2023-04-25T12:42:04;18.50;46.20
33943;DHT22;66763;47.856;17.462;2023-04-25T12:44:30;18.50;46.20
33943;DHT22;66763;47.856;17.462;2023-04-25T12:46:56;18.50;46.20
33943;DHT22;66763;47.856;17.462;2023-04-25T12:49:21;18.50;46.80
33943;DHT22;66763;47.856;17.462;2023-04-25T12:51:47;18.50;46.30
33943;DHT22;66763;47.856;17.462;2023-04-25T12:54:13;18.50;46.20
33943;DHT22;66763;47.856;17.462;2023-04-25T12:56:40;18.50;46.30
33943;DHT22;66763;47.856;17.462;2023-04-25T12:59:05;18.50;46.30
33943;DHT22;66763;47.856;17.462;2023-04-25T13:01:31;18.50;46.30
33943;DHT22;66763;47.856;17.462;2023-04-25T13:03:57;18.50;46.30
33943;DHT22;66763;47.856;17.462;2023-04-25T13:06:22;18.50;46.20
33943;DHT22;66763;47.856;17.462;2023-04-25T13:08:48;18.50;46.20
33943;DHT22;66763;47.856;17.462;2023-04-25T13:11:13;18.50;46.20
33943;DHT22;66763;47.856;17.462;2023-04-25T13:13:42;18.50;46.30
33943;DHT22;66763;47.856;17.462;2023-04-25T13:16:08;18.50;46.30
33943;DHT22;66763;47.856;17.462;2023-04-25T13:18:34;18.50;46.20
33943;DHT22;66763;47.856;17.462;2023-04-25T13:20:59;18.50;46.30
33943;DHT22;66763;47.856;17.462;2023-04-25T13:23:26;18.50;46.20
33943;DHT22;66763;47.856;17.462;2023-04-25T13:25:52;18.50;46.20
33943;DHT22;66763;47.856;17.462;2023-04-25T13:28:17;18.50;46.20
33943;DHT22;66763;47.856;17.462;2023-04-25T13:30:43;18.50;46.20
33943;DHT22;66763;47.856;17.462;2023-04-25T13:33:08;18.50;46.20
33943;DHT22;66763;47.856;17.462;2023-04-25T13:35:36;18.50;46.20
33943;DHT22;66763;47.856;17.462;2023-04-25T13:38:02;18.50;46.20
33943;DHT22;66763;47.856;17.462;2023-04-25T13:40:27;18.50;46.20
33943;DHT22;66763;47.856;17.462;2023-04-25T13:42:53;18.50;46.20
33943;DHT22;66763;47.856;17.462;2023-04-25T13:45:18;18.50;46.20
33943;DHT22;66763;47.856;17.462;2023-04-25T13:47:44;18.50;46.20
33943;DHT22;66763;47.856;17.462;2023-04-25T13:50:10;18.50;46.20
33943;DHT22;66763;47.856;17.462;2023-04-25T13:52:35;18.50;46.20
33943;DHT22;66763;47.856;17.462;2023-04-25T13:55:01;18.50;46.20
33943;DHT22;66763;47.856;17.462;2023-04-25T13:57:28;18.50;46.20
33943;DHT22;66763;47.856;17.462;2023-04-25T13:59:54;18.50;46.20
33943;DHT22;66763;47.856;17.462;2023-04-25T14:02:19;18.50;46.20
33943;DHT22;66763;47.856;17.462;2023-04-25T14:04:45;18.50;46.20
33943;DHT22;66763;47.856;17.462;2023-04-25T14:07:10;18.50;46.20
33943;DHT22;66763;47.856;17.462;2023-04-25T14:09:36;18.50;46.20
33943;DHT22;66763;47.856;17.462;2023-04-25T14:12:02;18.50;46.20
33943;DHT22;66763;47.856;17.462;2023-04-25T14:14:27;18.50;46.20
33943;DHT22;66763;47.856;17.462;2023-04-25T14:16:53;18.50;46.30
33943;DHT22;66763;47.856;17.462;2023-04-25T14:19:19;18.50;46.20
33943;DHT22;66763;47.856;17.462;2023-04-25T14:21:45;18.50;46.20
33943;DHT22;66763;47.856;17.462;2023-04-25T14:24:11;18.50;46.20
33943;DHT22;66763;47.856;17.462;2023-04-25T14:26:37;18.50;46.50
33943;DHT22;66763;47.856;17.462;2023-04-25T14:29:03;18.50;46.20
33943;DHT22;66763;47.856;17.462;2023-04-25T14:31:28;18.50;46.10
33943;DHT22;66763;47.856;17.462;2023-04-25T14:33:54;18.50;46.00
33943;DHT22;66763;47.856;17.462;2023-04-25T14:36:19;18.50;46.00
33943;DHT22;66763;47.856;17.462;2023-04-25T14:38:45;18.50;45.90
33943;DHT22;66763;47.856;17.462;2023-04-25T14:41:11;18.50;45.80
33943;DHT22;66763;47.856;17.462;2023-04-25T14:43:36;18.50;45.80
33943;DHT22;66763;47.856;17.462;2023-04-25T14:46:02;18.50;45.70
33943;DHT22;66763;47.856;17.462;2023-04-25T14:48:28;18.50;45.70
33943;DHT22;66763;47.856;17.462;2023-04-25T14:50:54;18.50;45.70
33943;DHT22;66763;47.856;17.462;2023-04-25T14:53:20;18.50;45.60
33943;DHT22;66763;47.856;17.462;2023-04-25T14:55:45;18.60;45.70
33943;DHT22;66763;47.856;17.462;2023-04-25T14:58:11;18.60;45.80
33943;DHT22;66763;47.856;17.462;2023-04-25T15:00:36;18.60;45.70
33943;DHT22;66763;47.856;17.462;2023-04-25T15:03:02;18.60;45.70
33943;DHT22;66763;47.856;17.462;2023-04-25T15:05:28;18.60;45.70
33943;DHT22;66763;47.856;17.462;2023-04-25T15:07:53;18.60;45.80
33943;DHT22;66763;47.856;17.462;2023-04-25T15:10:19;18.60;45.80
33943;DHT22;66763;47.856;17.462;2023-04-25T15:12:45;18.60;45.80